LFOE METAR and TAF | Updated Today

LFOE METAR

Évreux-Fauville (BA 105) Air Base

Observation time: 15 min. ago

LFOE 251900Z AUTO 26008KT 9999 FEW025 BKN030 BKN036 14/11 Q1021

Need help? Read our tutorial on how to read METARs or read the parsed version below.

Évreux-Fauville (BA 105) Air Base (LFOE) METAR

  • Weather conditions on Wed, 25 May 2022 19:00:00 +0000 (15 min. ago):
  • Present conditions: Dry
  • Clouds: A few at 762 meters; broken sky at 914 meters; broken sky at 1097 meters
  • Visibility: Greater than 10 km
  • Wind: 260 degrees at 8 knots
  • Temperature: 14 celsius
  • Dew point: 11 celsius
  • Pressure: 1021 millibars
  • Remarks: None


Useful to know...

  • Codes: LFOE/EVX
  • Airport elevation: 464ft
  • Municipality: Évreux/Fauville
  • Country: France
  • Continent: Europe

LFOE TAF

Évreux-Fauville (BA 105) Air Base

TAF LFOE 251400Z 2515/2615 26010G20KT 9999 BKN030 TEMPO 2600/2603 SCT010 BKN014
Observation time: 5:15 hr. ago
Need help? Read our tutorial on how to read TAFs or read the parsed version below.

Parsed version of TAF for Évreux-Fauville (BA 105) Air Base (LFOE)

  • From 25 May at 15:00 UTC, to day 26 of the month at 15:00 UTC
  • Clouds: Broken sky at 914 meters
  • Visibility: Greater than 10 km
  • Wind: 260 degrees at 10
  • Expected to arise temporarily, from 26 May at 00:00 UTC, to day 26 of the month at 03:00 UTC
  • Clouds: Scattered at 305 meters; broken sky at 427 meters